createdAt,value
2018-12-24T00:00:10.430Z,992.56
2018-12-24T00:01:37.680Z,992.5
2018-12-24T00:03:04.223Z,992.4
2018-12-24T00:04:34.621Z,992.36
2018-12-24T00:06:00.706Z,992.37
2018-12-24T00:07:28.240Z,992.36
2018-12-24T00:08:55.457Z,992.33
2018-12-24T00:10:25.516Z,992.29
2018-12-24T00:11:54.418Z,992.2
2018-12-24T00:13:27.783Z,992.13
2018-12-24T00:14:56.626Z,992.11
2018-12-24T00:16:25.844Z,992.1
2018-12-24T00:17:54.823Z,992.11
2018-12-24T00:19:24.125Z,992.12
2018-12-24T00:20:50.590Z,992.06
2018-12-24T00:22:19.689Z,992
2018-12-24T00:23:47.606Z,991.97
2018-12-24T00:25:18.316Z,991.96
2018-12-24T00:26:44.043Z,991.91
2018-12-24T00:28:10.503Z,991.88
2018-12-24T00:29:39.749Z,991.92
2018-12-24T00:31:06.386Z,991.84
2018-12-24T00:32:35.568Z,991.81
2018-12-24T00:34:05.856Z,991.78
2018-12-24T00:35:34.597Z,991.7
2018-12-24T00:37:04.933Z,991.61
2018-12-24T00:38:32.645Z,991.6
2018-12-24T00:39:59.962Z,991.54
2018-12-24T00:41:27.463Z,991.53
2018-12-24T00:42:54.397Z,991.51
2018-12-24T00:44:22.666Z,991.38
2018-12-24T00:45:52.334Z,991.33
2018-12-24T00:47:22.232Z,991.28
2018-12-24T00:48:50.311Z,991.21
2018-12-24T00:50:18.984Z,991.17
2018-12-24T00:51:49.349Z,991.16
2018-12-24T00:53:17.023Z,991.06
2018-12-24T00:54:46.675Z,991.07
2018-12-24T00:56:15.802Z,991.05
2018-12-24T00:57:44.682Z,991.06
2018-12-24T00:59:10.672Z,991.06
2018-12-24T01:00:37.881Z,991.05
2018-12-24T01:02:04.377Z,990.98
2018-12-24T01:03:30.855Z,990.97
2018-12-24T01:05:01.326Z,990.91
2018-12-24T01:06:31.267Z,990.78
2018-12-24T01:07:58.091Z,990.76
2018-12-24T01:09:24.842Z,990.71
2018-12-24T01:10:54.395Z,990.67
2018-12-24T01:12:24.613Z,990.68
2018-12-24T01:13:53.561Z,990.7
2018-12-24T01:15:24.418Z,990.56
2018-12-24T01:16:51.537Z,990.52
2018-12-24T01:18:16.477Z,990.48
2018-12-24T01:19:46.188Z,990.48
2018-12-24T01:21:11.196Z,990.41
2018-12-24T01:22:20.852Z,990.38
2018-12-24T01:23:30.445Z,990.37
2018-12-24T01:24:40.500Z,990.32
2018-12-24T01:25:50.059Z,990.22
2018-12-24T01:27:03.909Z,990.21
2018-12-24T01:28:15.009Z,990.1
2018-12-24T01:29:24.830Z,990.03
2018-12-24T01:30:34.902Z,989.92
2018-12-24T01:31:44.974Z,989.93
2018-12-24T01:32:55.085Z,989.75
2018-12-24T01:34:05.163Z,989.62
2018-12-24T01:35:15.232Z,989.59
2018-12-24T01:36:25.040Z,989.59
2018-12-24T01:37:35.106Z,989.56
2018-12-24T01:38:45.198Z,989.38
2018-12-24T01:39:55.247Z,989.28
2018-12-24T01:41:05.432Z,989.14
2018-12-24T01:42:15.490Z,989.04
2018-12-24T01:43:33.833Z,989.03
2018-12-24T01:44:43.890Z,988.88
2018-12-24T01:45:53.923Z,988.82
2018-12-24T01:47:03.988Z,988.78
2018-12-24T01:48:14.051Z,988.75
2018-12-24T01:49:23.593Z,988.7
2018-12-24T01:50:33.142Z,988.67
2018-12-24T01:51:43.229Z,988.71
2018-12-24T01:52:53.279Z,988.78
2018-12-24T01:54:03.189Z,988.83
2018-12-24T01:55:13.023Z,988.86
2018-12-24T01:56:22.846Z,988.91
2018-12-24T01:57:32.935Z,988.92
2018-12-24T01:58:42.990Z,988.99
2018-12-24T01:59:53.032Z,989.03
2018-12-24T02:01:03.932Z,989.09
2018-12-24T02:02:14.123Z,989.11
2018-12-24T02:03:24.205Z,989.12
2018-12-24T02:04:34.282Z,989.14
2018-12-24T02:05:44.299Z,989.12
2018-12-24T02:06:54.127Z,989.1
2018-12-24T02:08:05.768Z,988.99
2018-12-24T02:09:15.931Z,989.01
2018-12-24T02:10:25.799Z,988.88
2018-12-24T02:11:35.914Z,988.72
2018-12-24T02:12:46.219Z,988.74
2018-12-24T02:13:56.354Z,988.74
2018-12-24T02:15:06.405Z,988.72
2018-12-24T02:16:16.223Z,988.74
2018-12-24T02:17:26.315Z,988.73
2018-12-24T02:21:16.786Z,988.61
2018-12-24T02:22:26.601Z,988.58
2018-12-24T02:23:36.678Z,988.53
2018-12-24T02:24:46.991Z,988.48
2018-12-24T02:25:57.083Z,988.41
2018-12-24T02:27:07.166Z,988.32
2018-12-24T02:28:16.999Z,988.18
2018-12-24T02:29:27.075Z,988.14
2018-12-24T02:30:37.175Z,988.17
2018-12-24T02:31:47.364Z,988.17
2018-12-24T02:32:57.441Z,988.08
2018-12-24T02:34:06.989Z,988
2018-12-24T02:35:17.086Z,988.2
2018-12-24T02:36:27.180Z,988.13
2018-12-24T02:37:37.026Z,987.9
2018-12-24T02:38:46.875Z,987.9
2018-12-24T02:39:56.882Z,988.01
2018-12-24T02:41:07.454Z,987.96
2018-12-24T02:42:17.790Z,987.94
2018-12-24T02:43:27.881Z,987.96
2018-12-24T02:44:38.046Z,987.88
2018-12-24T02:45:48.123Z,987.86
2018-12-24T02:46:58.248Z,987.93
2018-12-24T02:48:10.629Z,987.89
2018-12-24T02:49:20.712Z,987.87
2018-12-24T02:50:30.606Z,987.76
2018-12-24T02:51:40.675Z,987.85
2018-12-24T02:52:50.802Z,987.93
2018-12-24T02:54:00.893Z,987.93
2018-12-24T02:55:10.976Z,987.86
2018-12-24T02:56:21.092Z,987.73
2018-12-24T02:57:31.173Z,987.61
2018-12-24T02:58:41.250Z,987.58
2018-12-24T02:59:51.391Z,987.55
2018-12-24T03:01:01.615Z,987.57
2018-12-24T03:02:11.487Z,987.52
2018-12-24T03:34:24.143Z,987.32
2018-12-24T03:35:34.206Z,987.34
2018-12-24T03:36:44.299Z,987.39
2018-12-24T03:37:54.360Z,987.38
2018-12-24T03:39:04.420Z,987.37
2018-12-24T03:40:14.556Z,987.33
2018-12-24T03:41:24.108Z,987.34
2018-12-24T03:42:34.184Z,987.37
2018-12-24T03:43:44.259Z,987.32
2018-12-24T03:44:53.572Z,987.33
2018-12-24T03:46:03.627Z,987.33
2018-12-24T03:47:13.843Z,987.31
2018-12-24T03:48:24.290Z,987.28
2018-12-24T03:49:34.097Z,987.36
2018-12-24T03:50:44.596Z,987.37
2018-12-24T03:51:54.887Z,987.34
2018-12-24T03:53:04.950Z,987.41
2018-12-24T03:54:14.749Z,987.48
2018-12-24T03:55:24.915Z,987.47
2018-12-24T03:56:34.981Z,987.4
2018-12-24T03:57:45.098Z,987.34
2018-12-24T03:58:55.181Z,987.34
2018-12-24T04:00:06.097Z,987.42
2018-12-24T04:01:16.854Z,987.5
2018-12-24T04:02:27.155Z,987.45
2018-12-24T04:03:37.248Z,987.42
2018-12-24T04:04:47.091Z,987.39
2018-12-24T04:05:57.150Z,987.33
2018-12-24T04:07:07.063Z,987.27
2018-12-24T04:08:17.181Z,987.24
2018-12-24T04:09:27.249Z,987.29
2018-12-24T04:10:37.335Z,987.31
2018-12-24T04:11:47.433Z,987.35
2018-12-24T04:12:57.493Z,987.36
2018-12-24T04:14:07.568Z,987.44
2018-12-24T04:15:17.622Z,987.52
2018-12-24T04:16:27.712Z,987.56
2018-12-24T04:17:37.795Z,987.57
2018-12-24T04:18:47.863Z,987.53
2018-12-24T04:19:57.714Z,987.53
2018-12-24T04:21:07.630Z,987.55
2018-12-24T04:22:18.004Z,987.57
2018-12-24T04:23:28.094Z,987.65
2018-12-24T04:24:37.912Z,987.74
2018-12-24T04:25:47.961Z,987.87
2018-12-24T04:26:57.917Z,987.95
2018-12-24T04:28:07.524Z,987.99
2018-12-24T04:29:17.592Z,987.99
2018-12-24T04:30:27.389Z,987.96
2018-12-24T04:31:37.522Z,988.03
2018-12-24T04:32:47.604Z,988.03
2018-12-24T04:33:57.671Z,988.01
2018-12-24T04:35:07.473Z,988.07
2018-12-24T04:36:17.055Z,988.03
2018-12-24T04:37:27.133Z,987.99
2018-12-24T04:38:37.255Z,987.96
2018-12-24T04:39:47.416Z,987.98
2018-12-24T04:40:57.223Z,987.96
2018-12-24T04:42:07.285Z,987.98
2018-12-24T04:43:17.346Z,988.07
2018-12-24T04:44:37.388Z,988.11
2018-12-24T04:45:47.449Z,988.17
2018-12-24T04:46:57.280Z,988.24
2018-12-24T04:48:07.347Z,988.19
2018-12-24T04:49:17.424Z,988.1
2018-12-24T04:50:27.491Z,988.05
2018-12-24T04:51:37.546Z,988.14
2018-12-24T04:52:47.609Z,988.18
2018-12-24T04:53:57.656Z,988.22
2018-12-24T04:55:07.512Z,988.24
2018-12-24T04:56:17.837Z,988.29
2018-12-24T04:57:28.115Z,988.35
2018-12-24T04:58:38.714Z,988.4
2018-12-24T04:59:48.839Z,988.44
2018-12-24T05:00:58.935Z,988.5
2018-12-24T05:02:09.030Z,988.6
2018-12-24T05:03:19.220Z,988.63
2018-12-24T05:04:29.289Z,988.62
2018-12-24T05:05:39.092Z,988.55
2018-12-24T05:06:49.160Z,988.5
2018-12-24T05:07:58.716Z,988.47
2018-12-24T05:09:08.798Z,988.51
2018-12-24T05:10:18.601Z,988.51
2018-12-24T05:11:28.665Z,988.47
2018-12-24T05:12:38.955Z,988.45
2018-12-24T05:13:49.029Z,988.38
2018-12-24T05:14:59.103Z,988.31
2018-12-24T05:16:09.173Z,988.29
2018-12-24T05:17:19.081Z,988.28
2018-12-24T05:18:29.376Z,988.27
2018-12-24T05:19:39.432Z,988.36
2018-12-24T05:20:49.492Z,988.4
2018-12-24T05:21:59.447Z,988.61
2018-12-24T05:23:09.603Z,988.81
2018-12-24T05:24:19.404Z,988.93
2018-12-24T05:25:28.692Z,989.2
2018-12-24T05:26:38.754Z,989.38
2018-12-24T05:27:49.032Z,989.53
2018-12-24T05:28:59.103Z,989.63
2018-12-24T05:30:08.977Z,989.73
2018-12-24T05:31:19.060Z,989.88
2018-12-24T05:32:29.123Z,989.94
2018-12-24T05:33:39.216Z,989.99
2018-12-24T05:34:49.246Z,990.04
2018-12-24T05:35:59.413Z,989.96
2018-12-24T05:37:09.666Z,989.99
2018-12-24T05:38:19.722Z,990
2018-12-24T05:39:29.514Z,989.96
2018-12-24T05:40:39.560Z,990.08
2018-12-24T05:41:49.635Z,990.1
2018-12-24T05:42:59.443Z,990.16
2018-12-24T05:44:09.486Z,990.16
2018-12-24T05:45:19.535Z,990.34
2018-12-24T05:46:29.348Z,990.18
2018-12-24T05:47:39.409Z,990.21
2018-12-24T05:48:49.484Z,990.26
2018-12-24T05:49:59.292Z,990.3
2018-12-24T05:51:09.351Z,990.32
2018-12-24T05:52:19.412Z,990.34
2018-12-24T05:53:29.485Z,990.45
2018-12-24T05:54:39.537Z,990.48
2018-12-24T05:55:49.575Z,990.38
2018-12-24T05:56:59.717Z,990.43
2018-12-24T05:58:09.785Z,990.56
2018-12-24T05:59:19.858Z,990.71
2018-12-24T06:00:29.920Z,990.81
2018-12-24T06:01:39.996Z,990.91
2018-12-24T06:02:50.062Z,990.96
2018-12-24T06:04:00.125Z,991.09
2018-12-24T06:05:10.303Z,991.1
2018-12-24T06:06:20.145Z,991.07
2018-12-24T06:07:29.940Z,991.15
2018-12-24T06:08:40.018Z,991.26
2018-12-24T06:09:49.860Z,991.37
2018-12-24T06:10:59.916Z,991.34
2018-12-24T06:12:09.717Z,991.29
2018-12-24T06:13:19.779Z,991.42
2018-12-24T06:14:29.832Z,991.46
2018-12-24T06:15:39.900Z,991.61
2018-12-24T06:16:50.365Z,991.69
2018-12-24T06:18:01.363Z,991.66
2018-12-24T06:19:11.429Z,991.75
2018-12-24T06:20:21.642Z,991.77
2018-12-24T06:21:40.252Z,991.87
2018-12-24T06:22:50.634Z,991.91
2018-12-24T06:24:00.848Z,991.94
2018-12-24T06:25:10.897Z,992.01
2018-12-24T06:26:20.966Z,992.02
2018-12-24T06:27:30.770Z,992.09
2018-12-24T06:28:40.840Z,992.1
2018-12-24T06:29:50.932Z,992.18
2018-12-24T06:31:05.165Z,992.19
2018-12-24T06:32:15.217Z,992.38
2018-12-24T06:33:25.528Z,992.45
2018-12-24T06:34:35.338Z,992.44
2018-12-24T06:35:45.628Z,992.65
2018-12-24T06:36:55.428Z,992.73
2018-12-24T06:38:06.665Z,992.74
2018-12-24T06:39:16.507Z,992.69
2018-12-24T06:40:26.627Z,992.68
2018-12-24T06:41:36.923Z,992.61
2018-12-24T06:42:46.733Z,992.71
2018-12-24T06:43:56.819Z,992.76
2018-12-24T06:45:14.331Z,992.74
2018-12-24T06:46:24.595Z,992.85
2018-12-24T06:47:34.405Z,993
2018-12-24T06:48:44.478Z,993.09
2018-12-24T06:49:54.582Z,993.03
2018-12-24T06:51:05.429Z,993.08
2018-12-24T06:52:14.981Z,993.15
2018-12-24T06:53:25.047Z,993.2
2018-12-24T06:54:35.107Z,993.24
2018-12-24T06:55:45.171Z,993.36
2018-12-24T06:56:55.232Z,993.34
2018-12-24T06:58:05.305Z,993.31
2018-12-24T06:59:15.551Z,993.3
2018-12-24T07:00:25.675Z,993.37
2018-12-24T07:01:35.807Z,993.34
2018-12-24T07:02:45.862Z,993.44
2018-12-24T07:03:55.939Z,993.34
2018-12-24T07:05:06.013Z,993.44
2018-12-24T07:06:16.081Z,993.62
2018-12-24T07:07:26.167Z,993.66
2018-12-24T07:08:36.220Z,993.86
2018-12-24T07:09:45.794Z,993.84
2018-12-24T07:10:55.987Z,993.83
2018-12-24T07:12:06.036Z,993.9
2018-12-24T07:13:16.341Z,993.97
2018-12-24T07:14:26.396Z,994.02
2018-12-24T07:15:37.044Z,994
2018-12-24T07:16:47.111Z,994.14
2018-12-24T07:17:57.286Z,994.11
2018-12-24T07:19:08.307Z,994.21
2018-12-24T07:20:18.223Z,994.29
2018-12-24T07:21:27.769Z,994.17
2018-12-24T07:22:37.813Z,994.08
2018-12-24T07:23:47.893Z,994.03
2018-12-24T07:24:57.953Z,994.05
2018-12-24T07:26:09.153Z,994.23
2018-12-24T07:27:19.242Z,994.34
2018-12-24T07:28:29.389Z,994.45
2018-12-24T07:29:39.496Z,994.5
2018-12-24T07:30:49.554Z,994.52
2018-12-24T07:31:59.385Z,994.48
2018-12-24T07:33:09.251Z,994.5
2018-12-24T07:34:19.312Z,994.46
2018-12-24T07:35:37.362Z,994.63
2018-12-24T07:36:47.539Z,994.57
2018-12-24T07:37:57.449Z,994.68
2018-12-24T07:39:08.425Z,994.67
2018-12-24T07:40:18.530Z,994.69
2018-12-24T07:41:28.808Z,994.73
2018-12-24T07:42:38.869Z,994.85
2018-12-24T07:43:48.977Z,994.99
2018-12-24T07:44:59.048Z,994.97
2018-12-24T07:46:09.105Z,994.93
2018-12-24T07:47:18.919Z,995.03
2018-12-24T07:48:29.056Z,995.12
2018-12-24T07:49:38.967Z,995.13
2018-12-24T07:50:49.110Z,995.06
2018-12-24T07:51:59.163Z,995.08
2018-12-24T07:53:09.240Z,995.22
2018-12-24T07:54:19.393Z,995.2
2018-12-24T07:55:29.264Z,995.28
2018-12-24T07:56:39.330Z,995.28
2018-12-24T07:57:49.375Z,995.38
2018-12-24T07:58:59.463Z,995.44
2018-12-24T08:00:10.783Z,995.36
2018-12-24T08:01:21.404Z,995.47
2018-12-24T08:02:31.683Z,995.54
2018-12-24T08:03:41.966Z,995.56
2018-12-24T08:04:52.028Z,995.64
2018-12-24T08:06:02.952Z,995.77
2018-12-24T08:07:13.048Z,995.88
2018-12-24T08:08:23.458Z,995.78
2018-12-24T08:09:33.531Z,995.81
2018-12-24T08:10:43.803Z,995.77
2018-12-24T08:11:54.286Z,995.86
2018-12-24T08:13:04.424Z,995.97
2018-12-24T08:14:14.537Z,996.1
2018-12-24T08:15:33.208Z,996.02
2018-12-24T08:16:43.061Z,996.14
2018-12-24T08:17:53.113Z,996.22
2018-12-24T08:19:03.513Z,996.28
2018-12-24T08:20:13.079Z,996.29
2018-12-24T08:21:23.137Z,996.32
2018-12-24T08:22:33.206Z,996.38
2018-12-24T08:23:43.332Z,996.48
2018-12-24T08:24:53.557Z,996.57
2018-12-24T08:26:05.902Z,996.53
2018-12-24T08:27:15.980Z,996.61
2018-12-24T08:28:25.832Z,996.61
2018-12-24T08:29:35.895Z,996.63
2018-12-24T08:30:46.012Z,996.73
2018-12-24T08:31:56.089Z,996.75
2018-12-24T08:33:06.138Z,996.66
2018-12-24T08:34:16.004Z,996.59
2018-12-24T08:35:26.649Z,996.72
2018-12-24T08:36:37.921Z,996.79
2018-12-24T08:37:48.671Z,996.81
2018-12-24T08:38:59.028Z,996.83
2018-12-24T08:40:09.270Z,996.84
2018-12-24T08:41:19.384Z,996.86
2018-12-24T08:42:29.466Z,996.98
2018-12-24T08:43:39.270Z,997.01
2018-12-24T08:44:49.335Z,997.06
2018-12-24T08:45:59.429Z,997.04
2018-12-24T08:47:09.539Z,997.03
2018-12-24T08:48:19.402Z,997.1
2018-12-24T08:49:29.509Z,997.08
2018-12-24T08:50:39.593Z,997.09
2018-12-24T08:51:49.668Z,997.21
2018-12-24T08:52:59.707Z,997.32
2018-12-24T08:54:09.568Z,997.3
2018-12-24T08:55:19.624Z,997.35
2018-12-24T08:56:29.673Z,997.34
2018-12-24T08:57:39.519Z,997.44
2018-12-24T08:58:49.602Z,997.44
2018-12-24T08:59:59.643Z,997.46
2018-12-24T09:01:11.451Z,997.65
2018-12-24T09:02:21.767Z,997.54
2018-12-24T09:03:31.857Z,997.61
2018-12-24T09:04:41.919Z,997.64
2018-12-24T09:05:52.037Z,997.62
2018-12-24T09:07:03.349Z,997.62
2018-12-24T09:08:13.404Z,997.69
2018-12-24T09:09:23.483Z,997.75
2018-12-24T09:10:33.566Z,997.81
2018-12-24T09:11:43.668Z,997.8
2018-12-24T09:12:53.746Z,997.82
2018-12-24T09:14:03.826Z,997.85
2018-12-24T09:15:13.656Z,997.88
2018-12-24T09:16:23.718Z,997.86
2018-12-24T09:17:35.078Z,997.98
2018-12-24T09:18:45.273Z,997.93
2018-12-24T09:19:55.345Z,997.93
2018-12-24T09:21:05.401Z,998
2018-12-24T09:22:15.177Z,998.07
2018-12-24T09:23:25.357Z,998.12
2018-12-24T09:24:35.437Z,998.12
2018-12-24T09:25:45.502Z,998.05
2018-12-24T09:26:55.646Z,998.15
2018-12-24T09:28:05.767Z,998.24
2018-12-24T09:29:15.874Z,998.1
2018-12-24T09:30:25.960Z,998.34
2018-12-24T09:31:36.057Z,998.4
2018-12-24T09:32:45.896Z,998.36
2018-12-24T09:33:56.243Z,998.38
2018-12-24T09:35:06.956Z,998.36
2018-12-24T09:36:17.123Z,998.42
2018-12-24T09:37:27.256Z,998.44
2018-12-24T09:38:37.360Z,998.43
2018-12-24T09:39:47.436Z,998.53
2018-12-24T09:40:57.055Z,998.5
2018-12-24T09:42:06.905Z,998.55
2018-12-24T09:43:16.997Z,998.53
2018-12-24T09:44:27.100Z,998.63
2018-12-24T09:45:37.175Z,998.6
2018-12-24T09:46:47.257Z,998.62
2018-12-24T09:47:57.342Z,998.64
2018-12-24T09:49:08.730Z,998.72
2018-12-24T09:50:18.890Z,998.76
2018-12-24T09:51:28.707Z,998.71
2018-12-24T09:52:38.850Z,998.84
2018-12-24T09:53:48.989Z,998.8
2018-12-24T09:54:58.810Z,998.76
2018-12-24T09:56:12.271Z,998.83
2018-12-24T09:57:22.808Z,998.82
2018-12-24T09:58:33.279Z,998.85
2018-12-24T09:59:43.404Z,998.88
2018-12-24T10:00:53.487Z,998.92
2018-12-24T10:02:04.306Z,998.96
2018-12-24T10:03:14.386Z,998.96
2018-12-24T10:04:24.487Z,998.89
2018-12-24T10:05:34.562Z,999.02
2018-12-24T10:06:44.634Z,999.08
2018-12-24T10:07:55.008Z,999
2018-12-24T10:09:05.081Z,999.06
2018-12-24T10:10:15.158Z,999.13
2018-12-24T10:11:24.469Z,999.08
2018-12-24T10:12:34.548Z,999.19
2018-12-24T10:13:44.632Z,999.17
2018-12-24T10:14:54.250Z,999.14
2018-12-24T10:16:13.272Z,999.09
2018-12-24T10:17:23.331Z,999.14
2018-12-24T10:18:33.192Z,999.2
2018-12-24T10:19:43.248Z,999.11
2018-12-24T10:20:53.090Z,999.14
2018-12-24T10:22:03.197Z,999.16
2018-12-24T10:23:13.007Z,999.26
2018-12-24T10:24:23.112Z,999.26
2018-12-24T10:25:33.181Z,999.22
2018-12-24T10:26:43.266Z,999.17
2018-12-24T10:27:53.336Z,999.28
2018-12-24T10:29:06.101Z,999.24
2018-12-24T10:30:16.066Z,999.25
2018-12-24T10:31:26.165Z,999.26
2018-12-24T10:32:35.981Z,999.33
2018-12-24T10:33:45.803Z,999.32
2018-12-24T10:34:55.874Z,999.35
2018-12-24T10:36:05.988Z,999.32
2018-12-24T10:37:16.056Z,999.38
2018-12-24T10:38:26.145Z,999.37
2018-12-24T10:39:36.311Z,999.42
2018-12-24T10:40:46.135Z,999.41
2018-12-24T10:41:56.427Z,999.48
2018-12-24T10:43:06.252Z,999.42
2018-12-24T10:44:16.081Z,999.45
2018-12-24T10:45:26.213Z,999.58
2018-12-24T10:46:36.302Z,999.54
2018-12-24T10:47:47.067Z,999.57
2018-12-24T10:48:56.686Z,999.56
2018-12-24T10:50:06.765Z,999.66
2018-12-24T10:51:16.642Z,999.58
2018-12-24T10:52:26.782Z,999.6
2018-12-24T10:53:36.595Z,999.62
2018-12-24T10:54:46.505Z,999.59
2018-12-24T10:55:56.833Z,999.59
2018-12-24T10:57:07.565Z,999.64
2018-12-24T10:58:17.666Z,999.63
2018-12-24T10:59:27.757Z,999.65
2018-12-24T11:00:37.843Z,999.76
2018-12-24T11:01:48.045Z,999.67
2018-12-24T11:02:57.875Z,999.74
2018-12-24T11:04:10.618Z,999.75
2018-12-24T11:05:20.716Z,999.74
2018-12-24T11:06:30.806Z,999.75
2018-12-24T11:07:40.927Z,999.84
2018-12-24T11:08:50.767Z,999.8
2018-12-24T11:10:00.589Z,999.8
2018-12-24T11:11:10.736Z,999.84
2018-12-24T11:12:20.594Z,999.87
2018-12-24T11:13:30.843Z,999.83
2018-12-24T11:14:42.389Z,999.91
2018-12-24T11:15:51.954Z,999.87
2018-12-24T11:17:02.053Z,999.89
2018-12-24T11:18:12.113Z,999.94
2018-12-24T11:19:22.201Z,999.89
2018-12-24T11:20:32.034Z,999.98
2018-12-24T11:21:41.861Z,999.91
2018-12-24T11:22:51.921Z,1000
2018-12-24T11:24:02.007Z,999.98
2018-12-24T11:25:12.118Z,999.94
2018-12-24T11:26:21.681Z,1000
2018-12-24T11:27:31.702Z,999.98
2018-12-24T11:28:41.819Z,1000.08
2018-12-24T11:29:51.628Z,1000.06
2018-12-24T11:31:01.705Z,1000.07
2018-12-24T11:32:11.558Z,1000.09
2018-12-24T11:33:21.645Z,1000.06
2018-12-24T11:34:31.716Z,1000.13
2018-12-24T11:35:41.769Z,1000.28
2018-12-24T11:36:51.858Z,1000.21
2018-12-24T11:38:03.298Z,1000.19
2018-12-24T11:39:13.375Z,1000.25
2018-12-24T11:40:23.295Z,1000.3
2018-12-24T11:41:33.374Z,1000.34
2018-12-24T11:42:43.550Z,1000.25
2018-12-24T11:43:53.858Z,1000.25
2018-12-24T11:45:03.672Z,1000.29
2018-12-24T11:46:13.770Z,1000.36
2018-12-24T11:47:23.841Z,1000.41
2018-12-24T11:48:34.070Z,1000.45
2018-12-24T11:49:44.141Z,1000.36
2018-12-24T11:50:54.225Z,1000.49
2018-12-24T11:52:04.310Z,1000.44
2018-12-24T11:53:14.373Z,1000.4
2018-12-24T11:54:24.533Z,1000.41
2018-12-24T11:55:34.613Z,1000.39
2018-12-24T11:56:44.694Z,1000.5
2018-12-24T11:57:54.793Z,1000.5
2018-12-24T11:59:04.880Z,1000.49
2018-12-24T12:00:15.326Z,1000.49
2018-12-24T12:01:25.305Z,1000.58
2018-12-24T12:02:35.385Z,1000.56
2018-12-24T12:03:45.234Z,1000.58
2018-12-24T12:04:55.396Z,1000.64
2018-12-24T12:06:05.278Z,1000.59
2018-12-24T12:07:22.704Z,1000.63
2018-12-24T12:08:32.558Z,1000.77
2018-12-24T12:09:42.658Z,1000.78
2018-12-24T12:10:52.733Z,1000.79
2018-12-24T12:12:04.568Z,1000.76
2018-12-24T12:13:14.704Z,1001.01
2018-12-24T12:14:24.768Z,1000.81
2018-12-24T12:15:42.323Z,1000.87
2018-12-24T12:16:52.696Z,1000.91
2018-12-24T12:18:02.762Z,1000.98
2018-12-24T12:19:13.075Z,1001.01
2018-12-24T12:20:23.164Z,1001.03
2018-12-24T12:21:32.983Z,1001.16
2018-12-24T12:22:42.802Z,1001.11
2018-12-24T12:23:52.861Z,1001.19
2018-12-24T12:25:02.943Z,1001.14
2018-12-24T12:26:13.038Z,1001.27
2018-12-24T12:27:22.853Z,1001.23
2018-12-24T12:28:32.972Z,1001.25
2018-12-24T12:29:43.140Z,1001.27
2018-12-24T12:30:52.940Z,1001.31
2018-12-24T12:32:03.033Z,1001.38
2018-12-24T12:33:12.848Z,1001.43
2018-12-24T12:34:22.932Z,1001.52
2018-12-24T12:35:33.033Z,1001.4
2018-12-24T12:36:43.147Z,1001.43
2018-12-24T12:37:53.208Z,1001.76
2018-12-24T12:39:04.130Z,1001.53
2018-12-24T12:40:14.233Z,1001.92
2018-12-24T12:41:24.113Z,1001.58
2018-12-24T12:42:34.200Z,1001.63
2018-12-24T12:43:44.299Z,1001.65
2018-12-24T12:44:54.359Z,1001.73
2018-12-24T12:46:04.475Z,1001.92
2018-12-24T12:47:14.544Z,1001.77
2018-12-24T12:48:24.887Z,1001.83
2018-12-24T12:49:34.972Z,1001.86
2018-12-24T12:50:44.799Z,1001.92
2018-12-24T12:51:54.874Z,1001.83
2018-12-24T12:53:05.260Z,1001.84
2018-12-24T12:54:15.344Z,1002.07
2018-12-24T12:55:25.546Z,1002
2018-12-24T12:56:35.390Z,1002.04
2018-12-24T12:57:45.454Z,1002.23
2018-12-24T12:58:55.660Z,1001.97
2018-12-24T13:00:08.676Z,1002
2018-12-24T13:01:19.569Z,1002.14
2018-12-24T13:02:29.629Z,1002.11
2018-12-24T13:03:39.717Z,1002.17
2018-12-24T13:04:49.857Z,1002.26
2018-12-24T13:05:59.907Z,1002.51
2018-12-24T13:07:09.706Z,1002.24
2018-12-24T13:08:19.800Z,1002.61
2018-12-24T13:09:29.869Z,1002.2
2018-12-24T13:10:39.944Z,1002.34
2018-12-24T13:11:49.760Z,1002.3
2018-12-24T13:13:00.062Z,1002.13
2018-12-24T13:14:09.910Z,1002.33
2018-12-24T13:15:20.094Z,1002.51
2018-12-24T13:16:30.234Z,1002.32
2018-12-24T13:17:39.891Z,1002.37
2018-12-24T13:18:49.982Z,1002.2
2018-12-24T13:20:00.063Z,1002.48
2018-12-24T13:21:09.907Z,1002.39
2018-12-24T13:22:19.974Z,1002.57
2018-12-24T13:23:29.800Z,1002.44
2018-12-24T13:24:39.910Z,1002.52
2018-12-24T13:25:49.828Z,1002.72
2018-12-24T13:26:59.865Z,1002.56
2018-12-24T13:28:12.317Z,1002.58
2018-12-24T13:29:22.162Z,1002.49
2018-12-24T13:30:32.264Z,1002.39
2018-12-24T13:31:42.351Z,1002.49
2018-12-24T13:32:52.174Z,1002.79
2018-12-24T13:34:02.495Z,1002.7
2018-12-24T13:35:12.600Z,1002.69
2018-12-24T13:36:22.677Z,1002.69
2018-12-24T13:37:32.792Z,1002.77
2018-12-24T13:38:42.892Z,1002.81
2018-12-24T13:39:52.984Z,1002.85
2018-12-24T13:41:03.208Z,1002.84
2018-12-24T13:42:13.288Z,1003
2018-12-24T13:43:23.372Z,1002.87
2018-12-24T13:44:32.927Z,1002.87
2018-12-24T13:45:43.071Z,1002.82
2018-12-24T13:46:53.157Z,1002.93
2018-12-24T13:48:03.825Z,1002.92
2018-12-24T13:49:13.981Z,1003.01
2018-12-24T13:50:24.352Z,1003.1
2018-12-24T13:51:34.450Z,1002.88
2018-12-24T13:52:44.521Z,1003.29
2018-12-24T13:53:54.633Z,1002.98
2018-12-24T13:55:04.712Z,1003.12
2018-12-24T13:56:14.785Z,1003.06
2018-12-24T13:57:24.940Z,1003.03
2018-12-24T13:58:34.803Z,1003.18
2018-12-24T13:59:44.909Z,1003.12
2018-12-24T14:00:54.977Z,1003.23
2018-12-24T14:02:05.066Z,1003.3
2018-12-24T14:03:17.213Z,1003.1
2018-12-24T14:04:27.318Z,1003.29
2018-12-24T14:05:37.507Z,1003.18
2018-12-24T14:06:47.603Z,1003.33
2018-12-24T14:07:57.689Z,1003.43
2018-12-24T14:09:07.861Z,1003.3
2018-12-24T14:10:17.979Z,1003.48
2018-12-24T14:11:28.068Z,1003.47
2018-12-24T14:12:38.198Z,1003.58
2018-12-24T14:13:48.303Z,1003.74
2018-12-24T14:14:58.276Z,1003.64
2018-12-24T14:16:16.646Z,1003.69
2018-12-24T14:17:27.012Z,1003.72
2018-12-24T14:18:37.021Z,1003.72
2018-12-24T14:19:47.090Z,1003.84
2018-12-24T14:20:57.169Z,1003.85
2018-12-24T14:22:07.330Z,1003.78
2018-12-24T14:23:17.171Z,1003.97
2018-12-24T14:24:27.281Z,1003.89
2018-12-24T14:25:38.291Z,1003.98
2018-12-24T14:26:48.549Z,1003.93
2018-12-24T14:27:58.693Z,1004.05
2018-12-24T14:29:09.836Z,1004.05
2018-12-24T14:30:19.899Z,1004.11
2018-12-24T14:31:29.998Z,1004.12
2018-12-24T14:32:39.838Z,1004.23
2018-12-24T14:33:49.931Z,1004.27
2018-12-24T14:35:00.014Z,1004.22
2018-12-24T14:36:10.107Z,1004.15
2018-12-24T14:37:19.946Z,1004.35
2018-12-24T14:38:30.648Z,1004.41
2018-12-24T14:39:41.658Z,1004.53
2018-12-24T14:40:51.763Z,1004.56
2018-12-24T14:42:02.806Z,1004.54
2018-12-24T14:43:12.920Z,1004.76
2018-12-24T14:44:22.738Z,1004.56
2018-12-24T14:45:32.853Z,1004.51
2018-12-24T14:46:42.722Z,1004.69
2018-12-24T14:47:52.535Z,1004.63
2018-12-24T14:49:03.913Z,1004.59
2018-12-24T14:50:13.826Z,1004.65
2018-12-24T14:51:23.973Z,1004.72
2018-12-24T14:52:34.049Z,1004.81
2018-12-24T14:53:43.866Z,1004.73
2018-12-24T14:54:53.964Z,1004.66
2018-12-24T14:56:04.051Z,1004.75
2018-12-24T14:57:14.186Z,1004.75
2018-12-24T14:58:24.087Z,1004.8
2018-12-24T14:59:34.152Z,1004.6
2018-12-24T15:00:44.396Z,1004.73
2018-12-24T15:01:54.570Z,1004.74
2018-12-24T15:03:04.421Z,1004.68
2018-12-24T15:04:14.243Z,1004.74
2018-12-24T15:05:24.362Z,1004.92
2018-12-24T15:06:34.571Z,1004.63
2018-12-24T15:07:44.640Z,1004.77
2018-12-24T15:08:54.766Z,1004.75
2018-12-24T15:10:04.580Z,1004.66
2018-12-24T15:11:14.438Z,1004.7
2018-12-24T15:12:24.511Z,1004.58
2018-12-24T15:13:34.607Z,1004.61
2018-12-24T15:14:44.681Z,1004.67
2018-12-24T15:15:54.770Z,1004.67
2018-12-24T15:17:05.092Z,1004.69
2018-12-24T15:18:15.168Z,1004.7
2018-12-24T15:19:24.978Z,1004.8
2018-12-24T15:20:35.084Z,1004.77
2018-12-24T15:21:44.951Z,1004.88
2018-12-24T15:22:55.014Z,1004.83